KAHN Airport Information

Runway Information
Runway 02 Length 4000 ft width 100 ft
Elevation 775 ft Threshold 0 ft Heading 21
Runway 20 Length 4000 ft Width 100 ft
Elevation 803 ft Threshold 0 ft Heading 201
Runway 09 Length 5522 ft width 100 ft
Elevation 755 ft Threshold 0 ft Heading 88
Runway 27 Length 5522 ft Width 100 ft
Elevation 808 ft Threshold 0 ft Heading 268
Airport Frequencies
Type A/D Name ATLANTA AP Frequency 127.5 MHZ
Type ASOS Name ASOS Frequency 132.875 MHZ
Type CLD Name ATLANTA CN Frequency 127.5 MHZ
Type CTAF Name CTAF Frequency 126.3 MHZ
Type GND Name GND Frequency 121.8 MHZ
Type RDO Name MACON RDO Frequency 109.6 MHZ
Type TWR Name TWR Frequency 126.3 MHZ
Type UNIC Name UNICOM Frequency 122.95 MHZ
Airport Navaids
Type VORTAC Name Athens Frequency 109600 KHZ
Type NDB Name Bulldog Frequency 221 KHZ
Airport Weather Information & NOTAM
ADDS - METARS form results

(0940 UTC 15 December 2018)
Data provider http://aviationweather.gov/metar/data/
 
METAR text: KAHN 150905Z AUTO 00000KT 1/2SM FG VV002 08/08 A2993 RMK AO2 T00830078
Conditions at: KAHN (ATHENS , GA, US) observed 0905 UTC 15 December 2018
Temperature: 8.3°C (47°F)
Dewpoint: 7.8°C (46°F) [RH = 97%]
Pressure (altimeter): 29.93 inches Hg (1013.6 mb)
Winds: calm
Visibility: 0.50 miles (0.80 km)
Ceiling: indefinite ceiling with vertical visibility of 200 feet AGL
Clouds: obscured sky
Weather: FG  (fog)

METAR text: KAHN 150851Z AUTO 00000KT 1SM BR VV002 08/08 A2993 RMK AO2 SLP135 60002 T00830078 53006
Conditions at: KAHN (ATHENS , GA, US) observed 0851 UTC 15 December 2018
Temperature: 8.3°C (47°F)
Dewpoint: 7.8°C (46°F) [RH = 97%]
Pressure (altimeter): 29.93 inches Hg (1013.6 mb)
[Sea-level pressure: 1013.5 mb]
Winds: calm
Visibility: 1.00 miles (1.61 km)
Ceiling: indefinite ceiling with vertical visibility of 200 feet AGL
Clouds: obscured sky
Weather: BR  (mist)

METAR text: KAHN 150841Z AUTO 00000KT 1 1/4SM BR OVC002 08/08 A2992 RMK AO2 T00830078
Conditions at: KAHN (ATHENS , GA, US) observed 0841 UTC 15 December 2018
Temperature: 8.3°C (47°F)
Dewpoint: 7.8°C (46°F) [RH = 97%]
Pressure (altimeter): 29.92 inches Hg (1013.3 mb)
Winds: calm
Visibility: 1.25 miles (2.01 km)
Ceiling: 200 feet AGL
Clouds: overcast cloud deck at 200 feet AGL
Weather: BR  (mist)

Forecast for: KAHN (ATHENS , GA, US)
Text: KAHN 150925Z 1509/1606 06003KT 2SM BR BKN005
Forecast period: 0900 to 1400 UTC 15 December 2018
Forecast type: FROM: standard forecast or significant change
Winds: from the ENE (60 degrees) at 3 MPH (3 knots; 1.5 m/s)
Visibility: 2.00 miles (3.22 km)
Ceiling: 500 feet AGL
Clouds: broken clouds at 500 feet AGL
Weather: BR  (mist)
Text: TEMPO 1509/1513 1/2SM -DZ FG OVC002
Forecast period: 0900 to 1300 UTC 15 December 2018
Forecast type: TEMPORARY: The following changes expected for less than half the time period
Visibility: 0.50 miles (0.80 km)
Ceiling: 200 feet AGL
Clouds: overcast cloud deck at 200 feet AGL
Weather: -DZ FG  (light drizzle, fog)
Text: FM151400 VRB03KT 6SM BR OVC008
Forecast period: 1400 to 1600 UTC 15 December 2018
Forecast type: FROM: standard forecast or significant change
Winds: variable direction winds at 3 MPH (3 knots; 1.5 m/s)
Visibility: 6 miles (10 km)
Ceiling: 800 feet AGL
Clouds: overcast cloud deck at 800 feet AGL
Weather: BR  (mist)
Text: FM151600 19005KT P6SM OVC015
Forecast period: 1600 to 1800 UTC 15 December 2018
Forecast type: FROM: standard forecast or significant change
Winds: from the S (190 degrees) at 6 MPH (5 knots; 2.6 m/s)
Visibility: 6 or more miles 10+ km)
Ceiling: 1500 feet AGL
Clouds: overcast cloud deck at 1500 feet AGL
Weather: no significant weather forecast for this period
Text: FM151800 24007KT P6SM OVC025
Forecast period: 1800 UTC 15 December 2018 to 0100 UTC 16 December 2018
Forecast type: FROM: standard forecast or significant change
Winds: from the WSW (240 degrees) at 8 MPH (7 knots; 3.6 m/s)
Visibility: 6 or more miles 10+ km)
Ceiling: 2500 feet AGL
Clouds: overcast cloud deck at 2500 feet AGL
Weather: no significant weather forecast for this period
Text: FM160100 28004KT P6SM BKN030
Forecast period: 0100 to 0600 UTC 16 December 2018
Forecast type: FROM: standard forecast or significant change
Winds: from the W (280 degrees) at 5 MPH (4 knots; 2.1 m/s)
Visibility: 6 or more miles 10+ km)
Ceiling: 3000 feet AGL
Clouds: broken clouds at 3000 feet AGL
Weather: no significant weather forecast for this period